createdAt,value
2022-09-16T00:00:44.970Z,20.83
2022-09-16T00:03:13.545Z,19.48
2022-09-16T00:05:42.508Z,19.10
2022-09-16T00:08:09.687Z,19.10
2022-09-16T00:10:37.135Z,19.42
2022-09-16T00:13:04.735Z,20.58
2022-09-16T00:15:31.809Z,18.58
2022-09-16T00:17:59.773Z,18.08
2022-09-16T00:20:26.924Z,16.98
2022-09-16T00:22:54.179Z,17.25
2022-09-16T00:25:21.182Z,16.77
2022-09-16T00:27:49.757Z,17.90
2022-09-16T00:30:17.021Z,18.23
2022-09-16T00:32:44.682Z,16.88
2022-09-16T00:35:11.654Z,17.80
2022-09-16T00:37:38.527Z,18.45
2022-09-16T00:40:06.422Z,17.25
2022-09-16T00:42:40.602Z,16.70
2022-09-16T00:45:18.099Z,15.40
2022-09-16T00:47:58.011Z,16.08
2022-09-16T00:50:49.192Z,17.27
2022-09-16T00:53:20.270Z,18.65
2022-09-16T00:55:48.021Z,20.55
2022-09-16T00:58:21.747Z,19.38
2022-09-16T01:00:49.581Z,19.27
2022-09-16T01:03:16.857Z,17.40
2022-09-16T01:05:44.692Z,16.30
2022-09-16T01:08:12.273Z,15.68
2022-09-16T01:10:42.341Z,14.27
2022-09-16T01:13:12.885Z,15.20
2022-09-16T01:16:01.416Z,14.10
2022-09-16T01:18:48.767Z,15.93
2022-09-16T01:21:18.625Z,16.45
2022-09-16T01:24:17.061Z,16.42
2022-09-16T01:27:18.665Z,14.32
2022-09-16T01:30:15.242Z,15.13
2022-09-16T01:32:42.135Z,14.68
2022-09-16T01:35:35.085Z,16.10
2022-09-16T01:38:29.210Z,17.05
2022-09-16T01:41:04.933Z,15.52
2022-09-16T01:44:00.443Z,16.38
2022-09-16T01:46:39.471Z,15.77
2022-09-16T01:49:26.532Z,15.48
2022-09-16T01:52:17.152Z,15.07
2022-09-16T01:54:55.401Z,15.65
2022-09-16T01:57:30.142Z,14.88
2022-09-16T02:00:07.020Z,14.02
2022-09-16T02:02:56.580Z,12.73
2022-09-16T02:05:37.034Z,14.00
2022-09-16T02:08:16.140Z,14.20
2022-09-16T02:10:52.835Z,13.05
2022-09-16T02:15:59.596Z,13.30
2022-09-16T02:18:30.622Z,14.05
2022-09-16T02:20:59.507Z,14.95
2022-09-16T02:23:33.362Z,14.55
2022-09-16T02:26:03.146Z,13.82
2022-09-16T02:28:34.746Z,13.75
2022-09-16T02:31:06.677Z,14.13
2022-09-16T02:33:39.101Z,14.30
2022-09-16T02:36:08.836Z,14.73
2022-09-16T02:38:41.771Z,13.57
2022-09-16T02:41:14.685Z,13.07
2022-09-16T02:43:42.417Z,13.00
2022-09-16T02:46:21.566Z,14.20
2022-09-16T02:49:14.776Z,12.98
2022-09-16T02:51:47.788Z,12.90
2022-09-16T02:54:17.614Z,14.10
2022-09-16T02:56:44.670Z,13.82
2022-09-16T02:59:14.528Z,13.30
2022-09-16T03:01:45.557Z,13.68
2022-09-16T03:04:15.540Z,13.43
2022-09-16T03:06:42.970Z,13.15
2022-09-16T03:09:12.566Z,13.95
2022-09-16T03:12:00.785Z,13.05
2022-09-16T03:14:37.026Z,13.88
2022-09-16T03:17:22.305Z,13.30
2022-09-16T03:20:18.372Z,13.80
2022-09-16T03:22:59.994Z,12.88
2022-09-16T03:25:51.331Z,12.38
2022-09-16T03:28:24.939Z,13.10
2022-09-16T03:31:27.289Z,14.43
2022-09-16T03:33:59.915Z,13.25
2022-09-16T03:36:33.629Z,13.70
2022-09-16T03:39:02.910Z,13.45
2022-09-16T03:41:31.912Z,14.43
2022-09-16T03:44:03.719Z,12.25
2022-09-16T03:46:31.932Z,13.80
2022-09-16T03:48:59.389Z,13.55
2022-09-16T03:51:26.795Z,12.88
2022-09-16T03:53:54.364Z,11.93
2022-09-16T03:56:23.419Z,12.45
2022-09-16T03:58:51.001Z,12.40
2022-09-16T04:01:18.122Z,13.13
2022-09-16T04:03:45.177Z,11.48
2022-09-16T04:06:12.088Z,11.73
2022-09-16T04:08:39.898Z,12.65
2022-09-16T04:11:07.196Z,11.13
2022-09-16T04:13:35.987Z,11.23
2022-09-16T04:16:04.455Z,10.40
2022-09-16T04:18:32.980Z,11.57
2022-09-16T04:21:01.183Z,11.30
2022-09-16T04:23:29.097Z,10.68
2022-09-16T04:26:01.295Z,11.13
2022-09-16T04:28:30.997Z,9.88
2022-09-16T04:31:06.545Z,10.88
2022-09-16T04:33:35.712Z,11.18
2022-09-16T04:36:14.015Z,10.23
2022-09-16T04:38:43.034Z,10.70
2022-09-16T04:41:15.333Z,9.95
2022-09-16T04:43:42.554Z,9.95
2022-09-16T04:46:09.935Z,9.95
2022-09-16T04:48:37.280Z,10.55
2022-09-16T04:51:09.760Z,10.32
2022-09-16T04:53:38.847Z,9.80
2022-09-16T04:56:14.792Z,9.77
2022-09-16T04:58:44.051Z,11.02
2022-09-16T05:01:14.685Z,10.85
2022-09-16T05:03:46.593Z,10.82
2022-09-16T05:06:20.823Z,11.63
2022-09-16T05:08:52.157Z,10.07
2022-09-16T05:11:24.726Z,9.85
2022-09-16T05:13:51.912Z,9.65
2022-09-16T05:16:21.793Z,10.52
2022-09-16T05:18:50.376Z,10.35
2022-09-16T05:21:21.194Z,10.73
2022-09-16T05:23:48.784Z,10.63
2022-09-16T05:26:21.180Z,9.90
2022-09-16T05:28:48.894Z,10.43
2022-09-16T05:31:19.334Z,10.75
2022-09-16T05:33:53.746Z,10.50
2022-09-16T05:36:20.862Z,10.40
2022-09-16T05:39:11.081Z,9.80
2022-09-16T05:41:35.004Z,10.48
2022-09-16T05:44:02.193Z,9.80
2022-09-16T05:46:29.398Z,10.00
2022-09-16T05:48:57.012Z,10.52
2022-09-16T05:51:25.587Z,9.98
2022-09-16T05:53:54.415Z,10.10
2022-09-16T05:56:25.859Z,10.63
2022-09-16T05:58:58.363Z,9.48
2022-09-16T06:01:28.236Z,9.93
2022-09-16T06:03:55.475Z,9.98
2022-09-16T06:06:43.175Z,10.57
2022-09-16T06:09:22.094Z,10.63
2022-09-16T06:11:51.154Z,10.70
2022-09-16T06:14:19.895Z,10.82
2022-09-16T06:16:47.403Z,10.60
2022-09-16T06:19:17.701Z,11.13
2022-09-16T06:21:46.043Z,10.75
2022-09-16T06:24:14.522Z,11.05
2022-09-16T06:26:44.520Z,11.60
2022-09-16T06:29:12.268Z,10.07
2022-09-16T06:31:39.847Z,10.57
2022-09-16T06:34:08.336Z,11.15
2022-09-16T06:36:42.808Z,10.55
2022-09-16T06:39:13.596Z,11.30
2022-09-16T06:41:40.815Z,10.20
2022-09-16T06:44:07.872Z,10.40
2022-09-16T06:46:34.847Z,10.02
2022-09-16T06:49:05.685Z,10.48
2022-09-16T06:51:34.707Z,9.82
2022-09-16T06:54:04.076Z,10.73
2022-09-16T06:56:31.458Z,9.32
2022-09-16T06:58:58.533Z,10.23
2022-09-16T07:01:28.400Z,10.45
2022-09-16T07:03:57.629Z,10.43
2022-09-16T07:06:49.577Z,9.95
2022-09-16T07:09:15.149Z,10.43
2022-09-16T07:11:42.074Z,10.25
2022-09-16T07:14:09.745Z,10.70
2022-09-16T07:16:37.069Z,10.38
2022-09-16T07:19:04.616Z,10.43
2022-09-16T07:21:32.666Z,10.95
2022-09-16T07:24:01.829Z,9.90
2022-09-16T07:26:31.617Z,10.77
2022-09-16T07:29:02.959Z,10.48
2022-09-16T07:31:32.427Z,11.27
2022-09-16T07:34:04.233Z,11.27
2022-09-16T07:36:37.977Z,11.68
2022-09-16T07:39:06.213Z,11.20
2022-09-16T07:41:35.971Z,12.18
2022-09-16T07:44:04.892Z,11.30
2022-09-16T07:46:34.153Z,10.95
2022-09-16T07:49:02.968Z,11.25
2022-09-16T07:51:30.737Z,11.07
2022-09-16T07:54:00.668Z,11.00
2022-09-16T07:56:29.758Z,11.88
2022-09-16T07:58:57.709Z,10.93
2022-09-16T08:01:25.856Z,10.88
2022-09-16T08:03:53.558Z,11.82
2022-09-16T08:06:23.185Z,10.77
2022-09-16T08:08:55.885Z,10.25
2022-09-16T08:11:23.874Z,10.38
2022-09-16T08:13:50.883Z,9.40
2022-09-16T08:16:20.642Z,9.80
2022-09-16T08:18:49.821Z,9.88
2022-09-16T08:21:23.100Z,9.80
2022-09-16T08:23:50.542Z,11.05
2022-09-16T08:26:18.336Z,9.38
2022-09-16T08:29:07.734Z,8.88
2022-09-16T08:31:35.685Z,8.07
2022-09-16T08:34:03.286Z,8.13
2022-09-16T08:36:30.227Z,8.25
2022-09-16T08:38:57.432Z,8.68
2022-09-16T08:41:45.968Z,8.80
2022-09-16T08:44:33.680Z,9.35
2022-09-16T08:47:03.956Z,8.75
2022-09-16T08:49:46.746Z,7.95
2022-09-16T08:52:24.179Z,8.43
2022-09-16T08:54:58.567Z,9.02
2022-09-16T08:57:29.133Z,8.52
2022-09-16T09:00:02.648Z,8.40
2022-09-16T09:02:31.797Z,8.07
2022-09-16T09:04:59.597Z,7.88
2022-09-16T09:08:03.537Z,8.18
2022-09-16T09:11:17.103Z,8.23
2022-09-16T09:13:59.293Z,8.30
2022-09-16T09:16:35.261Z,9.73
2022-09-16T09:19:10.214Z,9.60
2022-09-16T09:21:55.120Z,9.00
2022-09-16T09:24:37.320Z,9.73
2022-09-16T09:27:26.398Z,9.10
2022-09-16T09:29:56.310Z,8.70
2022-09-16T09:32:48.416Z,9.55
2022-09-16T09:35:34.517Z,8.88
2022-09-16T09:38:30.841Z,9.07
2022-09-16T09:41:05.975Z,9.27
2022-09-16T09:43:32.974Z,8.65
2022-09-16T09:46:11.806Z,8.75
2022-09-16T09:48:44.832Z,8.70
2022-09-16T09:51:29.915Z,8.20
2022-09-16T09:54:02.362Z,8.52
2022-09-16T09:56:35.401Z,8.35
2022-09-16T09:59:14.474Z,8.18
2022-09-16T10:01:41.542Z,7.88
2022-09-16T10:04:15.907Z,8.25
2022-09-16T10:06:46.106Z,7.68
2022-09-16T10:09:15.874Z,8.05
2022-09-16T10:11:49.179Z,7.82
2022-09-16T10:14:27.472Z,7.32
2022-09-16T10:16:55.424Z,7.68
2022-09-16T10:19:25.890Z,6.70
2022-09-16T10:22:11.419Z,7.60
2022-09-16T10:24:41.219Z,7.18
2022-09-16T10:27:20.153Z,6.55
2022-09-16T10:29:48.834Z,6.53
2022-09-16T10:32:18.951Z,7.30
2022-09-16T10:34:47.560Z,7.10
2022-09-16T10:37:18.973Z,6.78
2022-09-16T10:39:54.983Z,6.90
2022-09-16T10:42:25.815Z,6.63
2022-09-16T10:44:56.051Z,6.35
2022-09-16T10:47:30.047Z,7.03
2022-09-16T10:50:05.022Z,8.48
2022-09-16T10:52:51.039Z,6.65
2022-09-16T10:55:24.469Z,7.78
2022-09-16T10:57:52.434Z,7.13
2022-09-16T11:00:32.037Z,7.07
2022-09-16T11:03:04.999Z,7.18
2022-09-16T11:05:31.889Z,6.47
2022-09-16T11:08:16.032Z,6.25
2022-09-16T11:11:03.438Z,7.40
2022-09-16T11:13:38.306Z,7.30
2022-09-16T11:16:45.335Z,7.38
2022-09-16T11:19:44.009Z,7.88
2022-09-16T11:22:46.686Z,8.13
2022-09-16T11:25:42.955Z,7.47
2022-09-16T11:29:00.836Z,7.57
2022-09-16T11:31:55.292Z,7.28
2022-09-16T11:34:54.365Z,7.00
2022-09-16T11:37:35.407Z,6.60
2022-09-16T11:40:29.985Z,7.00
2022-09-16T11:43:09.158Z,6.95
2022-09-16T11:45:52.252Z,6.78
2022-09-16T11:48:37.853Z,7.22
2022-09-16T11:51:10.584Z,6.63
2022-09-16T11:54:05.809Z,6.28
2022-09-16T11:56:45.021Z,5.53
2022-09-16T11:59:24.896Z,6.47
2022-09-16T12:02:18.915Z,6.55
2022-09-16T12:05:11.109Z,6.53
2022-09-16T12:07:54.953Z,6.25
2022-09-16T12:10:37.126Z,7.45
2022-09-16T12:13:07.110Z,7.28
2022-09-16T12:15:47.823Z,7.07
2022-09-16T12:18:58.536Z,6.45
2022-09-16T12:21:31.033Z,7.00
2022-09-16T12:24:30.635Z,7.85
2022-09-16T12:27:15.751Z,8.73
2022-09-16T12:29:51.723Z,8.85
2022-09-16T12:32:29.115Z,9.57
2022-09-16T12:35:05.507Z,9.70
2022-09-16T12:37:40.447Z,10.80
2022-09-16T12:40:18.136Z,11.25
2022-09-16T12:43:01.663Z,12.23
2022-09-16T12:45:40.532Z,12.25
2022-09-16T12:48:30.130Z,12.75
2022-09-16T12:51:17.933Z,12.00
2022-09-16T12:54:22.381Z,14.07
2022-09-16T12:57:30.823Z,15.40
2022-09-16T13:00:12.906Z,14.15
2022-09-16T13:03:06.073Z,14.02
2022-09-16T13:05:37.424Z,13.52
2022-09-16T13:08:23.249Z,14.35
2022-09-16T13:11:38.925Z,13.98
2022-09-16T13:13:56.818Z,14.20
2022-09-16T13:16:36.042Z,14.32
2022-09-16T13:19:26.240Z,13.55
2022-09-16T13:22:11.447Z,14.20
2022-09-16T13:24:46.219Z,14.68
2022-09-16T13:27:53.270Z,14.57
2022-09-16T13:30:32.361Z,14.85
2022-09-16T13:33:27.970Z,15.57
2022-09-16T13:36:23.008Z,13.23
2022-09-16T13:38:50.240Z,13.60
2022-09-16T13:41:43.391Z,15.73
2022-09-16T13:44:39.316Z,13.02
2022-09-16T13:47:09.289Z,17.35
2022-09-16T13:49:56.799Z,16.50
2022-09-16T13:52:33.714Z,15.55
2022-09-16T13:55:11.689Z,15.40
2022-09-16T13:57:49.600Z,16.73
2022-09-16T14:00:22.605Z,19.85
2022-09-16T14:03:06.399Z,21.88
2022-09-16T14:05:52.006Z,21.00
2022-09-16T14:08:25.138Z,21.48
2022-09-16T14:10:56.508Z,23.60
2022-09-16T14:13:24.932Z,24.45
2022-09-16T14:15:56.470Z,23.02
2022-09-16T14:18:27.646Z,24.05
2022-09-16T14:21:02.911Z,16.42
2022-09-16T14:23:31.196Z,18.05
2022-09-16T14:26:10.171Z,16.30
2022-09-16T14:28:38.894Z,13.30
2022-09-16T14:31:21.403Z,15.35
2022-09-16T14:33:56.726Z,16.30
2022-09-16T14:36:30.118Z,15.40
2022-09-16T14:39:08.141Z,11.20
2022-09-16T14:41:37.414Z,11.80
2022-09-16T14:44:14.669Z,11.25
2022-09-16T14:46:44.447Z,11.85
2022-09-16T14:49:13.680Z,10.73
2022-09-16T14:51:48.199Z,11.52
2022-09-16T14:54:20.522Z,10.73
2022-09-16T14:57:06.185Z,12.50
2022-09-16T14:59:38.192Z,12.43
2022-09-16T15:02:26.365Z,14.10
2022-09-16T15:05:08.223Z,11.00
2022-09-16T15:07:56.218Z,12.00
2022-09-16T15:10:39.722Z,12.95
2022-09-16T15:13:19.934Z,12.55
2022-09-16T15:15:51.861Z,11.95
2022-09-16T15:18:29.409Z,12.68
2022-09-16T15:21:07.904Z,12.77
2022-09-16T15:23:37.440Z,11.45
2022-09-16T15:26:09.953Z,12.25
2022-09-16T15:28:36.870Z,11.05
2022-09-16T15:31:04.018Z,12.38
2022-09-16T15:33:37.616Z,12.30
2022-09-16T15:36:07.691Z,10.75
2022-09-16T15:38:34.670Z,12.02
2022-09-16T15:41:14.779Z,11.85
2022-09-16T15:43:46.405Z,8.95
2022-09-16T15:46:16.319Z,11.65
2022-09-16T15:48:46.962Z,10.13
2022-09-16T15:51:29.437Z,10.27
2022-09-16T15:54:05.898Z,10.80
2022-09-16T15:59:06.114Z,9.68
2022-09-16T16:01:53.639Z,9.18
2022-09-16T16:04:32.184Z,9.50
2022-09-16T16:07:04.912Z,10.13
2022-09-16T16:09:39.516Z,11.30
2022-09-16T16:12:10.676Z,10.15
2022-09-16T16:14:39.358Z,10.80
2022-09-16T16:17:13.114Z,10.93
2022-09-16T16:19:46.645Z,11.13
2022-09-16T16:22:14.780Z,11.43
2022-09-16T16:24:42.065Z,10.38
2022-09-16T16:27:10.722Z,10.40
2022-09-16T16:29:39.291Z,11.05
2022-09-16T16:32:08.194Z,10.18
2022-09-16T16:34:37.820Z,10.55
2022-09-16T16:37:06.058Z,10.38
2022-09-16T16:39:33.499Z,11.27
2022-09-16T16:42:00.714Z,11.65
2022-09-16T16:44:28.008Z,12.13
2022-09-16T16:46:55.995Z,13.05
2022-09-16T16:49:23.737Z,12.63
2022-09-16T16:51:52.301Z,12.75
2022-09-16T16:54:19.761Z,13.93
2022-09-16T16:56:46.997Z,13.05
2022-09-16T16:59:15.297Z,14.32
2022-09-16T17:01:47.902Z,13.50
2022-09-16T17:04:15.903Z,12.18
2022-09-16T17:06:43.592Z,13.27
2022-09-16T17:09:15.759Z,14.23
2022-09-16T17:11:59.241Z,14.45
2022-09-16T17:14:28.833Z,14.55
2022-09-16T17:16:56.756Z,16.70
2022-09-16T17:19:25.935Z,17.50
2022-09-16T17:21:53.981Z,17.90
2022-09-16T17:24:21.046Z,19.25
2022-09-16T17:26:48.450Z,22.33
2022-09-16T17:29:16.262Z,21.42
2022-09-16T17:31:44.135Z,20.45
2022-09-16T17:34:16.037Z,18.55
2022-09-16T17:36:45.506Z,18.33
2022-09-16T17:39:18.911Z,17.10
2022-09-16T17:41:48.792Z,17.58
2022-09-16T17:44:17.599Z,18.40
2022-09-16T17:46:45.548Z,18.15
2022-09-16T17:49:17.010Z,18.27
2022-09-16T17:51:45.466Z,17.85
2022-09-16T17:54:12.809Z,16.48
2022-09-16T17:56:40.013Z,16.90
2022-09-16T17:59:07.022Z,15.40
2022-09-16T18:01:34.601Z,14.68
2022-09-16T18:04:02.231Z,14.48
2022-09-16T18:06:32.581Z,15.18
2022-09-16T18:09:00.650Z,15.40
2022-09-16T18:11:27.658Z,17.15
2022-09-16T18:13:56.740Z,17.30
2022-09-16T18:16:24.687Z,18.70
2022-09-16T18:18:53.972Z,17.25
2022-09-16T18:21:22.839Z,18.48
2022-09-16T18:23:57.376Z,18.50
2022-09-16T18:26:25.259Z,18.17
2022-09-16T18:29:10.351Z,18.73
2022-09-16T18:31:46.376Z,19.88
2022-09-16T18:34:14.241Z,19.23
2022-09-16T18:36:41.451Z,18.77
2022-09-16T18:39:13.254Z,20.08
2022-09-16T18:41:41.795Z,18.98
2022-09-16T18:44:20.417Z,21.75
2022-09-16T18:46:47.927Z,20.38
2022-09-16T18:49:16.603Z,20.05
2022-09-16T18:51:50.813Z,19.77
2022-09-16T18:54:24.992Z,19.35
2022-09-16T18:56:55.831Z,19.48
2022-09-16T18:59:26.925Z,21.70
2022-09-16T19:01:57.073Z,19.55
2022-09-16T19:04:27.060Z,21.25
2022-09-16T19:06:56.280Z,19.38
2022-09-16T19:09:24.191Z,19.70
2022-09-16T19:11:55.426Z,19.95
2022-09-16T19:14:24.966Z,20.27
2022-09-16T19:16:52.459Z,19.52
2022-09-16T19:19:20.897Z,19.67
2022-09-16T19:21:48.317Z,20.80
2022-09-16T19:24:20.344Z,21.27
2022-09-16T19:26:48.936Z,19.85
2022-09-16T19:29:16.931Z,20.20
2022-09-16T19:31:46.181Z,20.58
2022-09-16T19:34:14.557Z,20.65
2022-09-16T19:36:42.516Z,20.15
2022-09-16T19:39:10.868Z,21.83
2022-09-16T19:41:39.633Z,21.20
2022-09-16T19:44:10.235Z,22.17
2022-09-16T19:46:38.681Z,20.77
2022-09-16T19:49:06.503Z,22.20
2022-09-16T19:51:33.584Z,22.08
2022-09-16T19:54:01.034Z,22.83
2022-09-16T19:56:32.111Z,21.33
2022-09-16T19:59:00.376Z,22.35
2022-09-16T20:01:33.104Z,22.27
2022-09-16T20:04:01.479Z,23.58
2022-09-16T20:06:32.657Z,23.33
2022-09-16T20:09:01.345Z,22.67
2022-09-16T20:11:36.189Z,23.95
2022-09-16T20:14:10.991Z,22.35
2022-09-16T20:16:39.831Z,21.58
2022-09-16T20:19:10.058Z,21.80
2022-09-16T20:21:38.169Z,21.67
2022-09-16T20:24:06.456Z,23.50
2022-09-16T20:26:34.574Z,22.90
2022-09-16T20:29:02.303Z,22.67
2022-09-16T20:31:32.629Z,23.83
2022-09-16T20:34:01.202Z,24.70
2022-09-16T20:36:32.816Z,25.73
2022-09-16T20:39:01.256Z,25.50
2022-09-16T20:41:30.739Z,27.02
2022-09-16T20:43:59.422Z,27.63
2022-09-16T20:46:32.114Z,28.27
2022-09-16T20:49:02.265Z,26.38
2022-09-16T20:51:31.789Z,28.88
2022-09-16T20:54:05.046Z,25.83
2022-09-16T20:56:38.303Z,26.20
2022-09-16T20:59:07.728Z,26.60
2022-09-16T21:01:36.855Z,27.10
2022-09-16T21:04:07.126Z,26.35
2022-09-16T21:06:35.793Z,27.50
2022-09-16T21:09:06.096Z,25.50
2022-09-16T21:11:33.536Z,27.42
2022-09-16T21:14:06.601Z,27.52
2022-09-16T21:16:36.165Z,27.65
2022-09-16T21:19:09.310Z,28.83
2022-09-16T21:21:38.925Z,26.30
2022-09-16T21:24:07.375Z,26.00
2022-09-16T21:26:36.464Z,25.60
2022-09-16T21:29:11.365Z,27.15
2022-09-16T21:31:41.049Z,25.23
2022-09-16T21:34:20.168Z,22.95
2022-09-16T21:36:48.132Z,24.13
2022-09-16T21:39:15.658Z,25.00
2022-09-16T21:41:44.682Z,26.23
2022-09-16T21:44:12.338Z,23.35
2022-09-16T21:46:42.672Z,23.33
2022-09-16T21:49:19.323Z,24.60
2022-09-16T21:51:46.460Z,23.58
2022-09-16T21:54:19.066Z,23.45
2022-09-16T21:56:47.292Z,24.27
2022-09-16T21:59:14.234Z,25.70
2022-09-16T22:01:41.347Z,27.08
2022-09-16T22:04:13.833Z,23.20
2022-09-16T22:06:41.929Z,22.65
2022-09-16T22:09:09.863Z,25.35
2022-09-16T22:11:39.571Z,23.75
2022-09-16T22:14:07.912Z,23.15
2022-09-16T22:16:37.550Z,22.63
2022-09-16T22:19:07.656Z,20.17
2022-09-16T22:21:36.731Z,19.40
2022-09-16T22:24:04.818Z,19.27
2022-09-16T22:26:32.011Z,20.13
2022-09-16T22:28:59.462Z,18.63
2022-09-16T22:31:29.365Z,20.58
2022-09-16T22:33:58.721Z,19.48
2022-09-16T22:36:28.345Z,18.45
2022-09-16T22:38:58.425Z,17.48
2022-09-16T22:41:25.759Z,16.98
2022-09-16T22:43:54.169Z,17.38
2022-09-16T22:46:27.737Z,15.95
2022-09-16T22:48:56.296Z,16.70
2022-09-16T22:51:23.807Z,16.45
2022-09-16T22:53:51.451Z,16.40
2022-09-16T22:56:25.161Z,15.90
2022-09-16T22:58:53.940Z,14.60
2022-09-16T23:01:29.571Z,14.55
2022-09-16T23:03:59.075Z,16.80
2022-09-16T23:06:29.037Z,15.23
2022-09-16T23:08:56.283Z,15.57
2022-09-16T23:11:26.894Z,16.90
2022-09-16T23:13:54.966Z,15.82
2022-09-16T23:16:30.372Z,14.95
2022-09-16T23:19:00.172Z,15.05
2022-09-16T23:21:27.867Z,15.50
2022-09-16T23:23:57.186Z,15.73
2022-09-16T23:26:27.139Z,15.07
2022-09-16T23:28:57.293Z,16.08
2022-09-16T23:31:27.439Z,14.85
2022-09-16T23:33:55.325Z,13.55
2022-09-16T23:36:25.849Z,13.80
2022-09-16T23:38:54.009Z,14.30
2022-09-16T23:41:23.791Z,13.73
2022-09-16T23:43:51.192Z,13.70
2022-09-16T23:46:21.317Z,12.75
2022-09-16T23:48:49.835Z,13.90
2022-09-16T23:51:16.813Z,14.60
2022-09-16T23:53:43.774Z,13.80
2022-09-16T23:56:12.949Z,13.30
2022-09-16T23:58:40.559Z,14.07
